createdAt,value
2023-02-23T00:03:07.319Z,11.63
2023-02-23T00:08:12.259Z,10.90
2023-02-23T00:13:17.075Z,11.70
2023-02-23T00:18:24.530Z,12.73
2023-02-23T00:23:30.097Z,11.67
2023-02-23T00:28:35.144Z,12.43
2023-02-23T00:33:43.849Z,11.47
2023-02-23T00:38:48.947Z,12.73
2023-02-23T00:43:55.175Z,12.07
2023-02-23T00:49:05.221Z,12.73
2023-02-23T00:54:10.965Z,12.50
2023-02-23T00:59:16.311Z,11.90
2023-02-23T01:04:23.786Z,13.77
2023-02-23T01:09:30.785Z,12.80
2023-02-23T01:14:36.105Z,13.57
2023-02-23T01:19:47.824Z,14.63
2023-02-23T01:24:52.870Z,14.67
2023-02-23T01:29:57.757Z,13.87
2023-02-23T01:35:05.692Z,13.73
2023-02-23T01:40:15.874Z,14.53
2023-02-23T01:45:27.243Z,15.70
2023-02-23T01:50:41.907Z,14.60
2023-02-23T01:55:49.919Z,16.43
2023-02-23T02:00:57.932Z,16.13
2023-02-23T02:06:09.916Z,16.53
2023-02-23T02:11:26.269Z,15.47
2023-02-23T02:17:03.705Z,15.97
2023-02-23T02:22:26.626Z,15.27
2023-02-23T02:27:50.449Z,15.60
2023-02-23T02:33:38.004Z,16.80
2023-02-23T02:38:56.660Z,16.33
2023-02-23T02:44:10.240Z,15.40
2023-02-23T02:49:22.973Z,16.17
2023-02-23T02:54:37.034Z,16.40
2023-02-23T03:00:02.875Z,16.17
2023-02-23T03:05:29.263Z,16.77
2023-02-23T03:10:57.143Z,16.10
2023-02-23T03:16:23.955Z,17.27
2023-02-23T03:21:47.141Z,16.80
2023-02-23T03:27:11.182Z,17.27
2023-02-23T03:32:34.133Z,16.90
2023-02-23T03:37:57.697Z,17.43
2023-02-23T03:43:21.050Z,18.07
2023-02-23T03:48:40.399Z,16.27
2023-02-23T03:54:05.749Z,15.87
2023-02-23T03:59:27.566Z,16.80
2023-02-23T04:04:46.787Z,15.77
2023-02-23T04:10:04.693Z,15.93
2023-02-23T04:15:15.255Z,15.70
2023-02-23T04:20:20.190Z,18.10
2023-02-23T04:25:26.925Z,16.40
2023-02-23T04:30:34.714Z,16.37
2023-02-23T04:35:40.242Z,17.33
2023-02-23T04:40:45.413Z,17.13
2023-02-23T04:45:53.111Z,16.60
2023-02-23T04:50:58.170Z,16.23
2023-02-23T04:56:03.007Z,18.17
2023-02-23T05:01:12.438Z,17.40
2023-02-23T05:06:17.372Z,17.40
2023-02-23T05:11:22.307Z,18.23
2023-02-23T05:16:29.819Z,19.30
2023-02-23T05:21:34.841Z,18.17
2023-02-23T05:26:40.051Z,19.60
2023-02-23T05:31:48.638Z,18.77
2023-02-23T05:36:54.296Z,19.50
2023-02-23T05:41:59.214Z,17.67
2023-02-23T05:47:06.982Z,18.53
2023-02-23T05:52:12.004Z,18.60
2023-02-23T05:57:17.105Z,18.57
2023-02-23T06:02:24.606Z,18.63
2023-02-23T06:07:29.655Z,17.80
2023-02-23T06:12:34.595Z,17.93
2023-02-23T06:17:42.094Z,19.13
2023-02-23T06:22:48.251Z,18.60
2023-02-23T06:27:53.744Z,18.00
2023-02-23T06:33:01.322Z,21.30
2023-02-23T06:38:07.494Z,19.90
2023-02-23T06:43:12.675Z,19.37
2023-02-23T06:48:20.397Z,20.60
2023-02-23T06:53:28.972Z,22.47
2023-02-23T06:58:34.026Z,20.33
2023-02-23T07:03:44.600Z,19.47
2023-02-23T07:08:51.313Z,19.60
2023-02-23T07:13:56.368Z,21.90
2023-02-23T07:19:03.922Z,21.20
2023-02-23T07:24:09.402Z,20.77
2023-02-23T07:29:16.313Z,20.97
2023-02-23T07:34:23.888Z,21.10
2023-02-23T07:39:29.049Z,21.57
2023-02-23T07:44:34.400Z,20.53
2023-02-23T07:49:42.602Z,20.47
2023-02-23T07:54:47.792Z,22.60
2023-02-23T07:59:55.861Z,20.17
2023-02-23T08:05:03.413Z,20.03
2023-02-23T08:10:10.788Z,19.07
2023-02-23T08:15:15.700Z,19.30
2023-02-23T08:20:23.374Z,18.63
2023-02-23T08:25:29.350Z,19.50
2023-02-23T08:30:34.448Z,18.47
2023-02-23T08:35:42.147Z,16.63
2023-02-23T08:40:47.036Z,16.80
2023-02-23T08:45:52.006Z,16.07
2023-02-23T08:51:03.746Z,15.90
2023-02-23T08:56:10.884Z,16.63
2023-02-23T09:01:22.186Z,15.33
2023-02-23T09:06:35.869Z,14.33
2023-02-23T09:11:41.630Z,15.43
2023-02-23T09:16:47.414Z,15.97
2023-02-23T09:21:56.602Z,15.73
2023-02-23T09:27:01.547Z,15.43
2023-02-23T09:32:08.571Z,15.50
2023-02-23T09:37:19.467Z,15.20
2023-02-23T09:42:41.185Z,15.33
2023-02-23T09:48:04.637Z,15.13
2023-02-23T09:53:43.129Z,14.90
2023-02-23T09:58:48.485Z,14.87
2023-02-23T10:03:58.328Z,14.40
2023-02-23T10:09:19.627Z,15.30
2023-02-23T10:14:43.008Z,13.90
2023-02-23T10:19:56.736Z,13.93
2023-02-23T10:25:12.494Z,13.97
2023-02-23T10:30:22.390Z,13.60
2023-02-23T10:35:29.832Z,14.20
2023-02-23T10:40:39.904Z,12.83
2023-02-23T10:45:49.642Z,13.33
2023-02-23T10:51:00.361Z,12.80
2023-02-23T10:56:13.742Z,11.90
2023-02-23T11:01:22.976Z,13.47
2023-02-23T11:06:34.149Z,13.27
2023-02-23T11:11:42.014Z,12.13
2023-02-23T11:16:49.665Z,12.67
2023-02-23T11:21:56.189Z,12.50
2023-02-23T11:27:06.884Z,13.50
2023-02-23T11:32:16.526Z,12.53
2023-02-23T11:37:30.051Z,12.80
2023-02-23T11:42:37.774Z,12.00
2023-02-23T11:47:44.543Z,11.90
2023-02-23T11:52:49.798Z,11.80
2023-02-23T11:58:11.891Z,12.20
2023-02-23T12:03:26.112Z,11.97
2023-02-23T12:08:48.961Z,10.90
2023-02-23T12:14:06.022Z,11.23
2023-02-23T12:19:26.308Z,12.60
2023-02-23T12:24:47.688Z,12.40
2023-02-23T12:30:09.156Z,12.40
2023-02-23T12:35:20.413Z,11.43
2023-02-23T12:40:30.279Z,11.13
2023-02-23T12:45:45.131Z,12.70
2023-02-23T12:50:56.377Z,11.17
2023-02-23T12:56:15.653Z,11.60
2023-02-23T13:01:27.222Z,11.77
2023-02-23T13:06:42.887Z,11.73
2023-02-23T13:12:24.497Z,12.40
2023-02-23T13:17:40.122Z,12.47
2023-02-23T13:22:52.368Z,11.77
2023-02-23T13:28:02.910Z,11.83
2023-02-23T13:33:22.132Z,10.93
2023-02-23T13:38:37.193Z,11.43
2023-02-23T13:43:52.654Z,12.27
2023-02-23T13:49:05.594Z,11.27
2023-02-23T13:54:27.858Z,11.07
2023-02-23T13:59:36.815Z,11.60
2023-02-23T14:04:46.345Z,11.20
2023-02-23T14:09:57.497Z,11.70
2023-02-23T14:15:43.043Z,11.60
2023-02-23T14:21:01.314Z,11.77
2023-02-23T14:26:40.168Z,10.03
2023-02-23T14:31:58.239Z,10.77
2023-02-23T14:37:32.592Z,12.77
2023-02-23T14:42:43.486Z,10.90
2023-02-23T14:47:53.946Z,9.83
2023-02-23T14:53:04.982Z,10.60
2023-02-23T14:58:25.619Z,10.40
2023-02-23T15:03:30.724Z,10.67
2023-02-23T15:08:43.317Z,12.27
2023-02-23T15:13:52.774Z,12.87
2023-02-23T15:19:02.442Z,12.40
2023-02-23T15:24:16.656Z,14.27
2023-02-23T15:29:23.942Z,14.93
2023-02-23T15:34:32.345Z,16.77
2023-02-23T15:39:46.516Z,17.03
2023-02-23T15:45:02.667Z,17.60
2023-02-23T15:50:20.126Z,20.30
2023-02-23T15:55:39.561Z,20.20
2023-02-23T16:00:49.398Z,19.47
2023-02-23T16:06:01.740Z,20.80
2023-02-23T16:11:14.044Z,19.60
2023-02-23T16:16:25.614Z,19.37
2023-02-23T16:21:34.863Z,20.70
2023-02-23T16:26:50.487Z,21.13
2023-02-23T16:32:00.422Z,21.20
2023-02-23T16:37:07.481Z,23.27
2023-02-23T16:42:25.554Z,23.40
2023-02-23T16:47:39.088Z,23.17
2023-02-23T16:52:46.121Z,24.10
2023-02-23T16:57:55.001Z,29.13
2023-02-23T17:03:05.677Z,25.63
2023-02-23T17:08:10.643Z,30.20
2023-02-23T17:13:22.066Z,25.30
2023-02-23T17:18:28.893Z,23.27
2023-02-23T17:23:48.251Z,24.90
2023-02-23T17:28:56.736Z,28.07
2023-02-23T17:34:02.004Z,28.07
2023-02-23T17:39:09.584Z,25.47
2023-02-23T17:44:17.156Z,25.63
2023-02-23T17:49:22.042Z,25.47
2023-02-23T17:54:26.950Z,23.20
2023-02-23T17:59:34.445Z,25.43
2023-02-23T18:04:39.271Z,25.07
2023-02-23T18:09:44.572Z,24.43
2023-02-23T18:14:52.229Z,25.27
2023-02-23T18:19:57.210Z,23.70
2023-02-23T18:25:05.752Z,22.07
2023-02-23T18:30:17.261Z,23.33
2023-02-23T18:35:22.223Z,24.60
2023-02-23T18:40:27.468Z,25.07
2023-02-23T18:45:36.821Z,25.40
2023-02-23T18:50:41.800Z,27.27
2023-02-23T18:55:47.355Z,26.60
2023-02-23T19:00:55.223Z,27.60
2023-02-23T19:06:01.061Z,27.43
2023-02-23T19:11:06.167Z,27.80
2023-02-23T19:16:14.838Z,26.93
2023-02-23T19:21:24.505Z,27.13
2023-02-23T19:26:36.370Z,27.90
2023-02-23T19:31:47.811Z,30.30
2023-02-23T19:36:52.995Z,30.43
2023-02-23T19:41:58.246Z,28.43
2023-02-23T19:47:06.678Z,29.00
2023-02-23T19:52:14.467Z,29.00
2023-02-23T19:57:21.121Z,30.43
2023-02-23T20:02:29.261Z,30.33
2023-02-23T20:07:34.411Z,32.17
2023-02-23T20:12:40.011Z,29.77
2023-02-23T20:17:47.711Z,30.97
2023-02-23T20:22:55.821Z,28.63
2023-02-23T20:28:01.519Z,30.67
2023-02-23T20:33:10.897Z,30.10
2023-02-23T20:38:16.396Z,30.83
2023-02-23T20:43:22.573Z,29.67
2023-02-23T20:48:32.823Z,33.20
2023-02-23T20:53:38.459Z,36.23
2023-02-23T20:58:43.937Z,30.97
2023-02-23T21:03:52.510Z,29.40
2023-02-23T21:09:03.975Z,30.30
2023-02-23T21:14:09.043Z,30.80
2023-02-23T21:19:17.891Z,30.80
2023-02-23T21:24:23.043Z,28.80
2023-02-23T21:29:28.144Z,30.33
2023-02-23T21:34:36.043Z,30.07
2023-02-23T21:39:40.991Z,31.87
2023-02-23T21:44:46.634Z,33.03
2023-02-23T21:49:54.449Z,41.43
2023-02-23T21:55:01.110Z,41.80
2023-02-23T22:00:09.665Z,43.67
2023-02-23T22:05:22.279Z,45.60
2023-02-23T22:10:28.045Z,45.07
2023-02-23T22:15:34.044Z,42.97
2023-02-23T22:20:44.377Z,41.07
2023-02-23T22:25:49.478Z,38.23
2023-02-23T22:30:55.444Z,38.00
2023-02-23T22:36:04.451Z,39.50
2023-02-23T22:41:10.356Z,37.37
2023-02-23T22:46:17.081Z,37.37
2023-02-23T22:51:24.686Z,38.83
2023-02-23T22:56:29.754Z,39.27
2023-02-23T23:01:35.973Z,39.77
2023-02-23T23:06:46.364Z,38.87
2023-02-23T23:11:51.859Z,40.00
2023-02-23T23:16:57.079Z,40.97
2023-02-23T23:22:04.976Z,41.10
2023-02-23T23:27:11.904Z,40.47
2023-02-23T23:32:18.768Z,42.67
2023-02-23T23:37:29.187Z,41.27
2023-02-23T23:42:34.945Z,44.00
2023-02-23T23:47:39.936Z,40.50
2023-02-23T23:52:50.553Z,40.37
2023-02-23T23:57:55.568Z,41.00
